createdAt,value
2018-06-04T00:00:16.714Z,62.69
2018-06-04T00:01:16.574Z,62.71
2018-06-04T00:02:16.521Z,62.7
2018-06-04T00:03:16.575Z,62.68
2018-06-04T00:04:16.673Z,62.69
2018-06-04T00:05:16.505Z,62.69
2018-06-04T00:06:16.593Z,62.72
2018-06-04T00:07:16.805Z,62.73
2018-06-04T00:08:16.758Z,62.69
2018-06-04T00:09:16.700Z,62.72
2018-06-04T00:10:16.516Z,62.73
2018-06-04T00:11:16.606Z,62.71
2018-06-04T00:12:16.570Z,62.72
2018-06-04T00:13:16.486Z,62.71
2018-06-04T00:14:39.768Z,62.73
2018-06-04T00:15:16.699Z,62.76
2018-06-04T00:16:16.491Z,62.7
2018-06-04T00:17:16.669Z,62.69
2018-06-04T00:18:16.740Z,62.72
2018-06-04T00:19:16.638Z,62.72
2018-06-04T00:20:16.644Z,62.73
2018-06-04T00:21:16.724Z,62.69
2018-06-04T00:22:16.805Z,62.68
2018-06-04T00:23:16.725Z,62.68
2018-06-04T00:24:16.652Z,62.72
2018-06-04T00:25:16.733Z,62.75
2018-06-04T00:26:16.776Z,62.75
2018-06-04T00:27:16.489Z,62.73
2018-06-04T00:28:16.536Z,62.7
2018-06-04T00:29:16.592Z,62.72
2018-06-04T00:30:16.868Z,62.73
2018-06-04T00:31:16.664Z,62.72
2018-06-04T00:32:17.057Z,62.73
2018-06-04T00:33:16.556Z,62.72
2018-06-04T00:34:16.631Z,62.69
2018-06-04T00:35:16.454Z,62.69
2018-06-04T00:36:16.515Z,62.7
2018-06-04T00:37:16.728Z,62.66
2018-06-04T00:38:16.789Z,62.72
2018-06-04T00:39:16.487Z,62.68
2018-06-04T00:40:16.440Z,62.67
2018-06-04T00:41:16.428Z,62.71
2018-06-04T00:42:16.625Z,62.67
2018-06-04T00:43:16.788Z,62.65
2018-06-04T00:44:16.623Z,62.64
2018-06-04T00:45:16.761Z,62.63
2018-06-04T00:46:16.497Z,62.68
2018-06-04T00:47:16.519Z,62.69
2018-06-04T00:48:16.571Z,62.68
2018-06-04T00:49:16.561Z,62.65
2018-06-04T00:50:16.502Z,62.7
2018-06-04T00:51:16.620Z,62.7
2018-06-04T00:52:16.387Z,62.68
2018-06-04T00:53:16.659Z,62.64
2018-06-04T00:54:16.817Z,62.69
2018-06-04T00:55:16.630Z,62.64
2018-06-04T00:56:16.515Z,62.67
2018-06-04T00:57:16.507Z,62.67
2018-06-04T00:58:16.569Z,62.65
2018-06-04T00:59:16.521Z,62.67
2018-06-04T01:00:16.557Z,62.7
2018-06-04T01:01:16.724Z,62.63
2018-06-04T01:02:16.876Z,62.64
2018-06-04T01:03:16.589Z,62.64
2018-06-04T01:04:16.819Z,62.67
2018-06-04T01:05:16.515Z,62.64
2018-06-04T01:06:16.411Z,62.65
2018-06-04T01:07:16.591Z,62.65
2018-06-04T01:08:16.674Z,62.71
2018-06-04T01:09:16.618Z,62.67
2018-06-04T01:10:16.829Z,62.67
2018-06-04T01:11:16.458Z,62.71
2018-06-04T01:12:16.564Z,62.68
2018-06-04T01:13:16.625Z,62.7
2018-06-04T01:14:16.611Z,62.67
2018-06-04T01:15:39.471Z,62.73
2018-06-04T01:16:16.637Z,62.72
2018-06-04T01:17:16.519Z,62.72
2018-06-04T01:18:16.622Z,62.7
2018-06-04T01:19:16.810Z,62.72
2018-06-04T01:20:16.667Z,62.69
2018-06-04T01:21:16.557Z,62.71
2018-06-04T01:22:16.631Z,62.73
2018-06-04T01:23:16.545Z,62.7
2018-06-04T01:24:16.791Z,62.69
2018-06-04T01:25:16.694Z,62.73
2018-06-04T01:26:16.361Z,62.7
2018-06-04T01:27:16.486Z,62.74
2018-06-04T01:28:16.640Z,62.74
2018-06-04T01:29:16.493Z,62.71
2018-06-04T01:30:16.611Z,62.69
2018-06-04T01:31:16.889Z,62.72
2018-06-04T01:32:16.490Z,62.71
2018-06-04T01:33:16.540Z,62.73
2018-06-04T01:34:16.689Z,62.7
2018-06-04T01:35:16.384Z,62.7
2018-06-04T01:36:16.421Z,62.68
2018-06-04T01:37:16.837Z,62.7
2018-06-04T01:38:16.609Z,62.74
2018-06-04T01:39:16.613Z,62.7
2018-06-04T01:40:16.583Z,62.72
2018-06-04T01:41:16.553Z,62.69
2018-06-04T01:42:16.543Z,62.71
2018-06-04T01:43:16.570Z,62.69
2018-06-04T01:44:16.490Z,62.69
2018-06-04T01:45:16.497Z,62.73
2018-06-04T01:46:16.605Z,62.69
2018-06-04T01:47:16.482Z,62.71
2018-06-04T01:48:16.603Z,62.72
2018-06-04T01:49:16.563Z,62.7
2018-06-04T01:50:16.536Z,62.71
2018-06-04T01:51:16.745Z,62.71
2018-06-04T01:52:16.547Z,62.7
2018-06-04T01:53:16.438Z,62.66
2018-06-04T01:54:16.662Z,62.71
2018-06-04T01:55:16.533Z,62.7
2018-06-04T01:56:16.477Z,62.7
2018-06-04T01:57:16.602Z,62.72
2018-06-04T01:58:16.616Z,62.71
2018-06-04T01:59:16.600Z,62.72
2018-06-04T02:00:16.664Z,62.72
2018-06-04T02:01:16.516Z,62.71
2018-06-04T02:02:16.831Z,62.69
2018-06-04T02:03:16.500Z,62.7
2018-06-04T02:04:16.580Z,62.72
2018-06-04T02:05:16.807Z,62.69
2018-06-04T02:06:16.356Z,62.7
2018-06-04T02:07:16.646Z,62.69
2018-06-04T02:08:16.541Z,62.74
2018-06-04T02:09:16.561Z,62.72
2018-06-04T02:10:16.558Z,62.72
2018-06-04T02:11:16.449Z,62.71
2018-06-04T02:12:16.630Z,62.72
2018-06-04T02:13:16.594Z,62.65
2018-06-04T02:14:16.382Z,62.73
2018-06-04T02:15:16.428Z,62.73
2018-06-04T02:16:16.701Z,62.7
2018-06-04T02:17:16.567Z,62.69
2018-06-04T02:18:16.457Z,62.71
2018-06-04T02:19:16.623Z,62.73
2018-06-04T02:20:16.560Z,62.7
2018-06-04T02:21:16.487Z,62.73
2018-06-04T02:22:16.597Z,62.71
2018-06-04T02:23:16.608Z,62.69
2018-06-04T02:24:16.428Z,62.72
2018-06-04T02:25:16.492Z,62.72
2018-06-04T02:26:16.607Z,62.77
2018-06-04T02:27:16.806Z,62.72
2018-06-04T02:28:16.541Z,62.73
2018-06-04T02:29:16.692Z,62.73
2018-06-04T02:30:16.662Z,62.75
2018-06-04T02:31:16.476Z,62.76
2018-06-04T02:32:16.572Z,62.73
2018-06-04T02:33:16.607Z,62.72
2018-06-04T02:34:16.618Z,62.72
2018-06-04T02:35:16.431Z,62.76
2018-06-04T02:36:16.653Z,62.74
2018-06-04T02:37:16.467Z,62.77
2018-06-04T02:38:16.510Z,62.77
2018-06-04T02:39:16.514Z,62.74
2018-06-04T02:40:16.541Z,62.77
2018-06-04T02:41:16.781Z,62.72
2018-06-04T02:42:16.642Z,62.79
2018-06-04T02:43:16.567Z,62.75
2018-06-04T02:44:16.584Z,62.75
2018-06-04T02:45:16.871Z,62.77
2018-06-04T02:46:16.462Z,62.75
2018-06-04T02:47:16.555Z,62.75
2018-06-04T02:48:16.634Z,62.75
2018-06-04T02:49:16.671Z,62.73
2018-06-04T02:50:16.634Z,62.73
2018-06-04T02:51:16.650Z,62.75
2018-06-04T02:52:16.639Z,62.76
2018-06-04T02:53:16.818Z,62.72
2018-06-04T02:54:16.592Z,62.79
2018-06-04T02:55:16.453Z,62.77
2018-06-04T02:56:16.573Z,62.76
2018-06-04T02:57:16.494Z,62.76
2018-06-04T02:58:16.822Z,62.74
2018-06-04T02:59:16.562Z,62.74
2018-06-04T03:00:16.600Z,62.8
2018-06-04T03:01:16.424Z,62.75
2018-06-04T03:02:16.380Z,62.74
2018-06-04T03:03:16.709Z,62.75
2018-06-04T03:04:16.486Z,62.76
2018-06-04T03:05:16.466Z,62.76
2018-06-04T03:06:16.515Z,62.78
2018-06-04T03:07:16.667Z,62.75
2018-06-04T03:08:16.572Z,62.75
2018-06-04T03:09:16.576Z,62.75
2018-06-04T03:10:16.527Z,62.75
2018-06-04T03:11:16.564Z,62.77
2018-06-04T03:12:16.426Z,62.75
2018-06-04T03:13:16.546Z,62.8
2018-06-04T03:14:16.506Z,62.79
2018-06-04T03:15:16.390Z,62.76
2018-06-04T03:16:16.640Z,62.77
2018-06-04T03:17:16.521Z,62.77
2018-06-04T03:18:16.480Z,62.78
2018-06-04T03:19:16.817Z,62.8
2018-06-04T03:20:16.540Z,62.8
2018-06-04T03:21:16.808Z,62.78
2018-06-04T03:22:16.635Z,62.8
2018-06-04T03:23:16.688Z,62.76
2018-06-04T03:24:16.446Z,62.78
2018-06-04T03:25:16.699Z,62.79
2018-06-04T03:26:16.471Z,62.81
2018-06-04T03:27:16.543Z,62.79
2018-06-04T03:28:16.576Z,62.79
2018-06-04T03:29:16.706Z,62.83
2018-06-04T03:30:16.626Z,62.8
2018-06-04T03:31:16.557Z,62.79
2018-06-04T03:32:16.463Z,62.77
2018-06-04T03:33:16.710Z,62.77
2018-06-04T03:34:16.494Z,62.78
2018-06-04T03:35:16.446Z,62.81
2018-06-04T03:36:16.761Z,62.79
2018-06-04T03:37:16.368Z,62.77
2018-06-04T03:38:16.636Z,62.82
2018-06-04T03:39:16.577Z,62.8
2018-06-04T03:40:16.478Z,62.84
2018-06-04T03:41:16.633Z,62.82
2018-06-04T03:42:16.622Z,62.78
2018-06-04T03:43:16.369Z,62.84
2018-06-04T03:44:16.465Z,62.79
2018-06-04T03:45:16.625Z,62.84
2018-06-04T03:46:16.535Z,62.79
2018-06-04T03:47:16.571Z,62.79
2018-06-04T03:48:16.598Z,62.82
2018-06-04T03:49:16.507Z,62.82
2018-06-04T03:50:16.546Z,62.82
2018-06-04T03:51:16.647Z,62.82
2018-06-04T03:52:16.617Z,62.78
2018-06-04T03:53:16.357Z,62.84
2018-06-04T03:54:16.523Z,62.81
2018-06-04T03:55:16.421Z,62.8
2018-06-04T03:56:16.464Z,62.79
2018-06-04T03:57:16.750Z,62.82
2018-06-04T03:58:16.546Z,62.83
2018-06-04T03:59:16.480Z,62.82
2018-06-04T04:00:16.566Z,62.78
2018-06-04T04:01:16.544Z,62.8
2018-06-04T04:02:16.445Z,62.8
2018-06-04T04:03:16.583Z,62.74
2018-06-04T04:04:16.642Z,62.62
2018-06-04T04:05:16.460Z,62.75
2018-06-04T04:06:16.719Z,62.75
2018-06-04T04:07:16.605Z,62.82
2018-06-04T04:08:16.899Z,62.87
2018-06-04T04:09:16.619Z,62.92
2018-06-04T04:10:16.428Z,62.85
2018-06-04T04:11:16.493Z,62.82
2018-06-04T04:12:16.651Z,62.8
2018-06-04T04:13:39.413Z,62.82
2018-06-04T04:14:16.617Z,62.83
2018-06-04T04:15:16.457Z,62.81
2018-06-04T04:16:16.564Z,62.87
2018-06-04T04:17:16.498Z,62.84
2018-06-04T04:18:16.494Z,62.86
2018-06-04T04:19:16.882Z,62.84
2018-06-04T04:20:16.531Z,62.85
2018-06-04T04:21:16.493Z,62.84
2018-06-04T04:22:16.650Z,62.87
2018-06-04T04:23:16.707Z,62.84
2018-06-04T04:24:16.543Z,62.82
2018-06-04T04:25:16.488Z,62.81
2018-06-04T04:26:16.576Z,62.81
2018-06-04T04:27:16.389Z,62.85
2018-06-04T04:28:16.518Z,62.87
2018-06-04T04:29:16.660Z,62.88
2018-06-04T04:30:16.508Z,62.81
2018-06-04T04:31:16.626Z,62.85
2018-06-04T04:32:16.455Z,62.83
2018-06-04T04:33:16.505Z,62.81
2018-06-04T04:34:16.597Z,62.81
2018-06-04T04:35:16.513Z,62.83
2018-06-04T04:36:16.482Z,62.81
2018-06-04T04:37:16.590Z,62.83
2018-06-04T04:38:16.651Z,62.82
2018-06-04T04:39:16.627Z,62.81
2018-06-04T04:40:16.656Z,62.88
2018-06-04T04:41:16.414Z,62.83
2018-06-04T04:42:16.602Z,62.83
2018-06-04T04:43:16.426Z,62.84
2018-06-04T04:44:16.487Z,62.79
2018-06-04T04:45:16.730Z,62.84
2018-06-04T04:46:16.622Z,62.84
2018-06-04T04:47:16.622Z,62.78
2018-06-04T04:48:16.616Z,62.82
2018-06-04T04:49:16.376Z,62.82
2018-06-04T04:50:16.670Z,62.84
2018-06-04T04:51:16.530Z,62.84
2018-06-04T04:52:16.461Z,62.83
2018-06-04T04:53:16.504Z,62.78
2018-06-04T04:54:16.430Z,62.83
2018-06-04T04:55:16.671Z,62.81
2018-06-04T04:56:16.592Z,62.86
2018-06-04T04:57:16.519Z,62.82
2018-06-04T04:58:16.604Z,62.82
2018-06-04T04:59:16.581Z,62.83
2018-06-04T05:00:16.666Z,62.78
2018-06-04T05:01:16.565Z,62.79
2018-06-04T05:02:16.505Z,62.78
2018-06-04T05:03:16.514Z,62.83
2018-06-04T05:04:16.532Z,62.78
2018-06-04T05:05:16.612Z,62.83
2018-06-04T05:06:16.497Z,62.84
2018-06-04T05:07:16.577Z,62.82
2018-06-04T05:08:16.412Z,62.8
2018-06-04T05:09:16.380Z,62.8
2018-06-04T05:10:16.536Z,62.82
2018-06-04T05:11:16.682Z,62.82
2018-06-04T05:12:16.875Z,62.79
2018-06-04T05:13:16.407Z,62.75
2018-06-04T05:14:16.486Z,62.82
2018-06-04T05:15:16.457Z,62.81
2018-06-04T05:16:16.494Z,62.8
2018-06-04T05:17:16.406Z,62.82
2018-06-04T05:18:16.406Z,62.8
2018-06-04T05:19:16.594Z,62.82
2018-06-04T05:20:16.509Z,62.84
2018-06-04T05:21:16.405Z,62.8
2018-06-04T05:22:16.507Z,62.84
2018-06-04T05:23:16.442Z,62.78
2018-06-04T05:24:16.626Z,62.79
2018-06-04T05:25:26.459Z,62.81
2018-06-04T05:26:16.619Z,62.75
2018-06-04T05:27:16.589Z,62.77
2018-06-04T05:28:16.393Z,62.83
2018-06-04T05:29:16.506Z,62.74
2018-06-04T05:30:16.508Z,62.79
2018-06-04T05:31:16.619Z,62.78
2018-06-04T05:32:16.562Z,62.81
2018-06-04T05:33:16.414Z,62.78
2018-06-04T05:34:16.491Z,62.77
2018-06-04T05:35:16.528Z,62.75
2018-06-04T05:36:16.391Z,62.78
2018-06-04T05:37:16.414Z,62.78
2018-06-04T05:38:16.661Z,62.8
2018-06-04T05:39:16.466Z,62.82
2018-06-04T05:40:16.670Z,62.78
2018-06-04T05:41:16.347Z,62.81
2018-06-04T05:42:16.710Z,62.8
2018-06-04T05:43:16.468Z,62.78
2018-06-04T05:44:16.613Z,62.79
2018-06-04T05:45:16.496Z,62.77
2018-06-04T05:46:16.568Z,62.75
2018-06-04T05:47:16.567Z,62.78
2018-06-04T05:48:16.383Z,62.78
2018-06-04T05:49:16.370Z,62.78
2018-06-04T05:50:16.364Z,62.81
2018-06-04T05:51:16.641Z,62.81
2018-06-04T05:52:16.634Z,62.78
2018-06-04T05:53:16.591Z,62.78
2018-06-04T05:54:16.464Z,62.8
2018-06-04T05:55:16.549Z,62.76
2018-06-04T05:56:17.119Z,62.76
2018-06-04T05:57:16.496Z,62.77
2018-06-04T05:58:16.531Z,62.78
2018-06-04T05:59:16.635Z,62.78
2018-06-04T06:00:16.525Z,62.8
2018-06-04T06:01:48.835Z,62.77
2018-06-04T06:02:16.578Z,62.78
2018-06-04T06:03:16.508Z,62.73
2018-06-04T06:04:16.425Z,62.75
2018-06-04T06:05:16.415Z,62.77
2018-06-04T06:06:16.398Z,62.74
2018-06-04T06:07:16.647Z,62.79
2018-06-04T06:08:16.380Z,62.75
2018-06-04T06:09:17.260Z,62.76
2018-06-04T06:10:16.480Z,62.79
2018-06-04T06:11:16.563Z,62.78
2018-06-04T06:12:16.457Z,62.72
2018-06-04T06:13:16.584Z,62.78
2018-06-04T06:14:17.104Z,62.81
2018-06-04T06:15:16.548Z,62.77
2018-06-04T06:16:16.372Z,62.78
2018-06-04T06:17:16.528Z,62.79
2018-06-04T06:18:48.000Z,62.78
2018-06-04T06:19:16.547Z,62.76
2018-06-04T06:20:16.474Z,62.81
2018-06-04T06:21:16.523Z,62.78
2018-06-04T06:22:16.542Z,62.76
2018-06-04T06:23:16.368Z,62.79
2018-06-04T06:24:16.554Z,62.77
2018-06-04T06:25:16.582Z,62.79
2018-06-04T06:26:16.494Z,62.76
2018-06-04T06:27:16.578Z,62.77
2018-06-04T06:28:16.426Z,62.78
2018-06-04T06:29:16.373Z,62.76
2018-06-04T06:30:16.507Z,62.78
2018-06-04T06:31:16.445Z,62.75
2018-06-04T06:32:16.628Z,62.79
2018-06-04T06:33:16.543Z,62.76
2018-06-04T06:34:16.311Z,62.79
2018-06-04T06:35:16.383Z,62.77
2018-06-04T06:36:16.564Z,62.78
2018-06-04T06:37:16.370Z,62.74
2018-06-04T06:38:16.576Z,62.75
2018-06-04T06:39:16.519Z,62.72
2018-06-04T06:40:16.520Z,62.78
2018-06-04T06:41:16.391Z,62.78
2018-06-04T06:42:16.588Z,62.8
2018-06-04T06:43:16.587Z,62.76
2018-06-04T06:44:16.610Z,62.77
2018-06-04T06:45:16.518Z,62.78
2018-06-04T06:46:16.320Z,62.8
2018-06-04T06:47:16.438Z,62.76
2018-06-04T06:48:16.383Z,62.79
2018-06-04T06:49:16.487Z,62.77
2018-06-04T06:50:16.600Z,62.76
2018-06-04T06:51:16.527Z,62.78
2018-06-04T06:52:17.783Z,62.76
2018-06-04T06:53:16.589Z,62.75
2018-06-04T06:54:16.679Z,62.74
2018-06-04T06:55:16.473Z,62.77
2018-06-04T06:56:16.502Z,62.77
2018-06-04T06:57:16.393Z,62.76
2018-06-04T06:58:16.378Z,62.83
2018-06-04T06:59:16.602Z,62.81
2018-06-04T07:00:16.427Z,62.81
2018-06-04T07:01:16.477Z,62.75
2018-06-04T07:02:16.760Z,62.73
2018-06-04T07:03:16.696Z,62.75
2018-06-04T07:04:16.565Z,62.75
2018-06-04T07:05:16.350Z,62.78
2018-06-04T07:06:16.676Z,62.87
2018-06-04T07:07:16.456Z,62.89
2018-06-04T07:08:16.327Z,63.04
2018-06-04T07:09:16.515Z,63.05
2018-06-04T07:10:16.383Z,63.03
2018-06-04T07:11:16.447Z,63.2
2018-06-04T07:12:16.770Z,63.29
2018-06-04T07:13:16.486Z,63.23
2018-06-04T07:14:16.799Z,63.2
2018-06-04T07:15:16.363Z,63.39
2018-06-04T07:16:16.769Z,63.25
2018-06-04T07:17:16.523Z,63.11
2018-06-04T07:18:16.367Z,63.2
2018-06-04T07:19:16.379Z,63.25
2018-06-04T07:20:16.574Z,63.28
2018-06-04T07:21:16.776Z,63.39
2018-06-04T07:22:16.510Z,63.28
2018-06-04T07:23:16.541Z,63.23
2018-06-04T07:24:16.542Z,63.2
2018-06-04T07:25:16.530Z,63.22
2018-06-04T07:26:16.568Z,63.13
2018-06-04T07:27:16.490Z,63.3
2018-06-04T07:28:16.346Z,63.2
2018-06-04T07:29:16.613Z,63.02
2018-06-04T07:30:16.615Z,63
2018-06-04T07:31:16.465Z,63.15
2018-06-04T07:32:16.534Z,63.16
2018-06-04T07:33:16.800Z,63.08
2018-06-04T07:34:16.605Z,62.98
2018-06-04T07:35:16.450Z,62.99
2018-06-04T07:36:16.458Z,62.97
2018-06-04T07:37:16.642Z,62.98
2018-06-04T07:38:16.539Z,63.05
2018-06-04T07:39:16.368Z,62.98
2018-06-04T07:40:16.428Z,63.01
2018-06-04T07:41:16.838Z,63.01
2018-06-04T07:42:16.568Z,63.01
2018-06-04T07:43:16.369Z,62.98
2018-06-04T07:44:16.481Z,62.98
2018-06-04T07:45:16.542Z,62.96
2018-06-04T07:46:16.505Z,62.99
2018-06-04T07:47:16.476Z,63
2018-06-04T07:48:16.576Z,62.96
2018-06-04T07:49:16.574Z,62.96
2018-06-04T07:50:16.360Z,62.96
2018-06-04T07:51:16.553Z,62.95
2018-06-04T07:52:16.481Z,63.01
2018-06-04T07:53:16.543Z,62.96
2018-06-04T07:54:16.304Z,62.95
2018-06-04T07:55:16.566Z,62.99
2018-06-04T07:56:16.517Z,62.94
2018-06-04T07:57:17.008Z,62.93
2018-06-04T07:58:16.449Z,62.94
2018-06-04T07:59:16.559Z,62.95
2018-06-04T08:00:16.542Z,62.95
2018-06-04T08:01:26.409Z,62.94
2018-06-04T08:02:16.484Z,62.93
2018-06-04T08:03:16.434Z,62.91
2018-06-04T08:04:16.860Z,62.93
2018-06-04T08:05:16.753Z,62.96
2018-06-04T08:06:16.833Z,62.89
2018-06-04T08:07:16.408Z,62.91
2018-06-04T08:08:16.459Z,62.89
2018-06-04T08:09:16.634Z,62.89
2018-06-04T08:10:17.003Z,62.92
2018-06-04T08:11:16.389Z,62.91
2018-06-04T08:12:16.470Z,62.88
2018-06-04T08:13:16.550Z,62.91
2018-06-04T08:14:16.377Z,62.89
2018-06-04T08:15:16.707Z,62.89
2018-06-04T08:16:16.348Z,62.89
2018-06-04T08:17:16.309Z,62.9
2018-06-04T08:18:16.474Z,62.88
2018-06-04T08:19:16.577Z,62.89
2018-06-04T08:20:16.680Z,62.92
2018-06-04T08:21:16.513Z,62.88
2018-06-04T08:22:16.403Z,62.91
2018-06-04T08:23:16.515Z,62.87
2018-06-04T08:24:16.398Z,62.89
2018-06-04T08:25:16.426Z,62.87
2018-06-04T08:26:16.381Z,62.83
2018-06-04T08:27:16.399Z,62.87
2018-06-04T08:28:16.398Z,62.87
2018-06-04T08:29:16.823Z,62.86
2018-06-04T08:30:16.433Z,62.88
2018-06-04T08:31:16.475Z,62.87
2018-06-04T08:32:16.547Z,62.88
2018-06-04T08:33:16.610Z,62.87
2018-06-04T08:34:16.651Z,62.86
2018-06-04T08:35:16.394Z,62.85
2018-06-04T08:36:16.463Z,62.88
2018-06-04T08:37:16.565Z,62.87
2018-06-04T08:38:16.828Z,62.87
2018-06-04T08:39:16.396Z,62.87
2018-06-04T08:40:16.723Z,62.86
2018-06-04T08:41:16.449Z,62.83
2018-06-04T08:42:16.483Z,62.89
2018-06-04T08:43:16.487Z,62.85
2018-06-04T08:44:16.557Z,62.85
2018-06-04T08:45:16.440Z,62.85
2018-06-04T08:46:16.798Z,62.85
2018-06-04T08:47:16.492Z,62.85
2018-06-04T08:48:16.407Z,62.83
2018-06-04T08:49:16.572Z,62.85
2018-06-04T08:50:16.521Z,62.85
2018-06-04T08:51:16.437Z,62.87
2018-06-04T08:52:16.343Z,62.86
2018-06-04T08:53:16.544Z,62.85
2018-06-04T08:54:16.415Z,62.85
2018-06-04T08:55:16.531Z,62.85
2018-06-04T08:56:16.848Z,62.84
2018-06-04T08:57:16.378Z,62.82
2018-06-04T08:58:16.661Z,62.84
2018-06-04T08:59:16.350Z,62.84
2018-06-04T09:00:16.484Z,62.86
2018-06-04T09:01:16.468Z,62.85
2018-06-04T09:02:16.524Z,62.83
2018-06-04T09:03:16.357Z,62.85
2018-06-04T09:04:16.374Z,62.84
2018-06-04T09:05:16.379Z,62.87
2018-06-04T09:06:16.469Z,62.85
2018-06-04T09:07:16.339Z,62.8
2018-06-04T09:08:16.422Z,62.84
2018-06-04T09:09:16.381Z,62.81
2018-06-04T09:10:16.430Z,62.84
2018-06-04T09:11:16.455Z,62.79
2018-06-04T09:12:16.496Z,62.82
2018-06-04T09:13:16.509Z,62.85
2018-06-04T09:14:16.391Z,62.82
2018-06-04T09:15:16.512Z,62.84
2018-06-04T09:16:16.501Z,62.81
2018-06-04T09:17:16.636Z,62.8
2018-06-04T09:18:16.628Z,62.85
2018-06-04T09:19:16.319Z,62.82
2018-06-04T09:20:16.459Z,62.81
2018-06-04T09:21:16.539Z,62.81
2018-06-04T09:22:16.504Z,62.8
2018-06-04T09:23:16.334Z,62.8
2018-06-04T09:24:16.560Z,62.78
2018-06-04T09:25:16.463Z,62.8
2018-06-04T09:26:16.572Z,62.84
2018-06-04T09:27:16.512Z,62.82
2018-06-04T09:28:16.523Z,62.8
2018-06-04T09:29:16.509Z,62.82
2018-06-04T09:30:16.291Z,62.82
2018-06-04T09:31:16.541Z,62.76
2018-06-04T09:32:16.947Z,62.82
2018-06-04T09:33:16.531Z,62.85
2018-06-04T09:34:16.476Z,62.81
2018-06-04T09:35:16.634Z,62.81
2018-06-04T09:36:16.514Z,62.78
2018-06-04T09:37:16.504Z,62.81
2018-06-04T09:38:16.514Z,62.82
2018-06-04T09:39:16.504Z,62.81
2018-06-04T09:40:16.436Z,62.81
2018-06-04T09:41:16.328Z,62.8
2018-06-04T09:42:16.481Z,62.77
2018-06-04T09:43:34.739Z,62.82
2018-06-04T09:44:16.471Z,62.79
2018-06-04T09:45:16.592Z,62.78
2018-06-04T09:46:16.507Z,62.81
2018-06-04T09:47:16.436Z,62.79
2018-06-04T09:48:16.327Z,62.78
2018-06-04T09:49:16.440Z,62.81
2018-06-04T09:50:16.436Z,62.8
2018-06-04T09:51:16.525Z,62.79
2018-06-04T09:52:16.565Z,62.79
2018-06-04T09:53:16.453Z,62.79
2018-06-04T09:54:16.436Z,62.8
2018-06-04T09:55:16.462Z,62.78
2018-06-04T09:56:16.525Z,62.78
2018-06-04T09:57:16.397Z,62.75
2018-06-04T09:58:16.673Z,62.77
2018-06-04T09:59:16.437Z,62.76
2018-06-04T10:00:16.613Z,62.79
2018-06-04T10:01:16.446Z,62.77
2018-06-04T10:02:16.566Z,62.77
2018-06-04T10:03:16.562Z,62.8
2018-06-04T10:04:16.566Z,62.79
2018-06-04T10:05:16.566Z,62.79
2018-06-04T10:06:16.544Z,62.77
2018-06-04T10:07:16.554Z,62.76
2018-06-04T10:08:16.321Z,62.77
2018-06-04T10:09:16.472Z,62.8
2018-06-04T10:10:16.460Z,62.77
2018-06-04T10:11:16.547Z,62.75
2018-06-04T10:12:16.506Z,62.76
2018-06-04T10:13:16.517Z,62.77
2018-06-04T10:14:16.694Z,62.77
2018-06-04T10:15:16.540Z,62.74
2018-06-04T10:16:16.410Z,62.76
2018-06-04T10:17:39.750Z,62.75
2018-06-04T10:18:16.397Z,62.75
2018-06-04T10:19:16.538Z,62.75
2018-06-04T10:20:16.616Z,62.78
2018-06-04T10:21:16.464Z,62.77
2018-06-04T10:22:16.504Z,62.8
2018-06-04T10:23:16.522Z,62.77
2018-06-04T10:24:16.331Z,62.78
2018-06-04T10:25:16.544Z,62.74
2018-06-04T10:26:16.391Z,62.79
2018-06-04T10:27:16.359Z,62.75
2018-06-04T10:28:16.374Z,62.8
2018-06-04T10:29:16.594Z,62.75
2018-06-04T10:30:16.409Z,62.79
2018-06-04T10:31:16.624Z,62.77
2018-06-04T10:32:16.544Z,62.74
2018-06-04T10:33:16.425Z,62.74
2018-06-04T10:34:16.653Z,62.77
2018-06-04T10:35:16.573Z,62.76
2018-06-04T10:36:16.562Z,62.74
2018-06-04T10:37:16.506Z,62.77
2018-06-04T10:38:16.392Z,62.79
2018-06-04T10:39:16.495Z,62.77
2018-06-04T10:40:16.306Z,62.75
2018-06-04T10:41:16.448Z,62.77
2018-06-04T10:42:16.520Z,62.75
2018-06-04T10:43:16.491Z,62.74
2018-06-04T10:44:16.396Z,62.77
2018-06-04T10:45:16.477Z,62.75
2018-06-04T10:46:16.589Z,62.73
2018-06-04T10:47:16.414Z,62.74
2018-06-04T10:48:16.377Z,62.78
2018-06-04T10:49:16.366Z,62.73
2018-06-04T10:50:16.522Z,62.74
2018-06-04T10:51:16.379Z,62.75
2018-06-04T10:52:16.416Z,62.75
2018-06-04T10:53:16.400Z,62.76
2018-06-04T10:54:16.532Z,62.74
2018-06-04T10:55:16.628Z,62.75
2018-06-04T10:56:16.491Z,62.77
2018-06-04T10:57:16.430Z,62.76
2018-06-04T10:58:16.338Z,62.74
2018-06-04T10:59:16.574Z,62.77
2018-06-04T11:00:16.435Z,62.76
2018-06-04T11:01:16.513Z,62.75
2018-06-04T11:02:16.574Z,62.76
2018-06-04T11:03:16.444Z,62.74
2018-06-04T11:04:16.533Z,62.74
2018-06-04T11:05:16.653Z,62.74
2018-06-04T11:06:16.644Z,62.74
2018-06-04T11:07:16.508Z,62.74
2018-06-04T11:08:16.367Z,62.74
2018-06-04T11:09:16.287Z,62.74
2018-06-04T11:10:16.533Z,62.75
2018-06-04T11:11:16.471Z,62.76
2018-06-04T11:12:16.352Z,62.75
2018-06-04T11:13:16.368Z,62.76
2018-06-04T11:14:16.478Z,62.78
2018-06-04T11:15:16.352Z,62.76
2018-06-04T11:16:16.614Z,62.74
2018-06-04T11:17:16.428Z,62.72
2018-06-04T11:18:16.453Z,62.74
2018-06-04T11:19:16.348Z,62.76
2018-06-04T11:20:16.365Z,62.76
2018-06-04T11:21:16.395Z,62.73
2018-06-04T11:22:16.511Z,62.74
2018-06-04T11:23:16.323Z,62.76
2018-06-04T11:24:16.412Z,62.76
2018-06-04T11:25:16.378Z,62.75
2018-06-04T11:26:16.523Z,62.77
2018-06-04T11:27:16.590Z,62.71
2018-06-04T11:28:16.413Z,62.74
2018-06-04T11:29:16.325Z,62.76
2018-06-04T11:30:16.603Z,62.78
2018-06-04T11:31:16.475Z,62.76
2018-06-04T11:32:16.434Z,62.75
2018-06-04T11:33:16.508Z,62.74
2018-06-04T11:34:16.511Z,62.76
2018-06-04T11:35:16.489Z,62.78
2018-06-04T11:36:16.532Z,62.75
2018-06-04T11:37:16.530Z,62.74
2018-06-04T11:38:16.297Z,62.73
2018-06-04T11:39:16.334Z,62.72
2018-06-04T11:40:16.404Z,62.76
2018-06-04T11:41:16.438Z,62.73
2018-06-04T11:42:16.595Z,62.77
2018-06-04T11:43:16.272Z,62.74
2018-06-04T11:44:16.749Z,62.74
2018-06-04T11:45:16.709Z,62.72
2018-06-04T11:46:16.455Z,62.74
2018-06-04T11:47:16.291Z,62.72
2018-06-04T11:48:16.429Z,62.76
2018-06-04T11:49:16.420Z,62.71
2018-06-04T11:50:16.496Z,62.7
2018-06-04T11:51:16.553Z,62.75
2018-06-04T11:52:16.538Z,62.74
2018-06-04T11:53:16.303Z,62.76
2018-06-04T11:54:16.350Z,62.75
2018-06-04T11:55:16.344Z,62.72
2018-06-04T11:56:16.563Z,62.73
2018-06-04T11:57:16.401Z,62.75
2018-06-04T11:58:16.418Z,62.76
2018-06-04T11:59:16.613Z,62.75
2018-06-04T12:00:16.360Z,62.74
2018-06-04T12:01:16.362Z,62.69
2018-06-04T12:02:16.419Z,62.74
2018-06-04T12:03:16.426Z,62.73
2018-06-04T12:04:16.412Z,62.75
2018-06-04T12:05:16.517Z,62.75
2018-06-04T12:06:16.294Z,62.72
2018-06-04T12:07:16.548Z,62.76
2018-06-04T12:08:16.544Z,62.77
2018-06-04T12:09:16.299Z,62.76
2018-06-04T12:10:16.427Z,62.73
2018-06-04T12:11:16.557Z,62.73
2018-06-04T12:12:16.552Z,62.76
2018-06-04T12:13:16.731Z,62.74
2018-06-04T12:14:16.550Z,62.75
2018-06-04T12:15:16.469Z,62.72
2018-06-04T12:16:16.407Z,62.73
2018-06-04T12:17:16.356Z,62.72
2018-06-04T12:18:16.374Z,62.73
2018-06-04T12:19:16.475Z,62.76
2018-06-04T12:20:16.363Z,62.76
2018-06-04T12:21:16.537Z,62.73
2018-06-04T12:22:16.312Z,62.75
2018-06-04T12:23:16.521Z,62.74
2018-06-04T12:24:16.415Z,62.71
2018-06-04T12:25:16.367Z,62.72
2018-06-04T12:26:16.419Z,62.75
2018-06-04T12:27:16.428Z,62.72
2018-06-04T12:28:16.873Z,62.76
2018-06-04T12:29:16.301Z,62.72
2018-06-04T12:30:16.472Z,62.73
2018-06-04T12:31:16.408Z,62.79
2018-06-04T12:32:16.462Z,62.8
2018-06-04T12:33:16.466Z,62.74
2018-06-04T12:34:16.486Z,62.8
2018-06-04T12:35:16.625Z,62.87
2018-06-04T12:36:16.257Z,62.91
2018-06-04T12:37:16.427Z,62.91
2018-06-04T12:38:16.440Z,62.95
2018-06-04T12:39:16.417Z,62.93
2018-06-04T12:40:16.269Z,62.97
2018-06-04T12:41:16.388Z,62.99
2018-06-04T12:42:16.409Z,63
2018-06-04T12:43:16.468Z,62.99
2018-06-04T12:44:16.523Z,63
2018-06-04T12:45:16.513Z,62.97
2018-06-04T12:46:16.456Z,62.98
2018-06-04T12:47:16.463Z,63.09
2018-06-04T12:48:16.536Z,63.23
2018-06-04T12:49:16.690Z,63.12
2018-06-04T12:50:16.332Z,63
2018-06-04T12:51:39.907Z,63
2018-06-04T12:52:16.433Z,63.15
2018-06-04T12:53:16.515Z,63.08
2018-06-04T12:54:16.508Z,62.91
2018-06-04T12:55:16.379Z,62.96